aviador You're here:

EPBY Decoded Metar

BYDGOSZCZ in POLAND
Report Time2018-07-20 20:00:00
UTC Time2018-07-20 20:09:08
Flight Rules vfr VFR
Wind340° at 05 kt
W.Decomp.*RWY 26: 1.3 kt HW 4.8 kt RCW
W.Rank340° ranks 33
Current wind is below 340° avg. (6.9)
Visibility9999 m
Phenomena:N/A
Clouds:N/A
Expected CloudBase > 3,200 ft AGL from Temp-Dew spread
CeilingNone
Temp21°C (ISA +6)
Dew Point13°C (60% RH)
AAT20.1°C
QNH1012 hPa
Density Alt1,224 ft
Elevation233 ft
Report Wrong Elevation
Raw Report
METAR EPBY 202000Z 34005KT CAVOK 21/13 Q1012 =

Extra information for EPBY:More info

Metar Taf Metar & Taf Last 4 Metars F.Rules Stats Wind Profile Meteogram Temp Stats Airport Information Weather charts Add Link Nearby VenuesMetar ALERT Operation Metar Decoded Social comments